Time;durP1;ratioP1;P1;durP2;ratioP2;P2;SDS_P1;SDS_P2;PMS_P1;PMS_P2;Temp;Humidity;BMP_temperature;BMP_pressure;BME280_temperature;BME280_humidity;BME280_pressure;Samples;Min_cycle;Max_cycle;Signal;HPM_P1;HPM_P2
2023/09/12 00:01:12;;;;;;;14.17;5.93;;;;;;;21.62;72.56;151452.03;4972843;28;20659;-66
2023/09/12 00:03:38;;;;;;;8.87;5.77;;;;;;;21.60;74.10;151447.03;4978271;28;20242;-66
2023/09/12 00:06:05;;;;;;;8.60;6.00;;;;;;;21.49;75.48;151421.94;4975223;28;20218;-65
2023/09/12 00:08:32;;;;;;;11.60;6.07;;;;;;;21.36;76.60;151390.59;4978327;28;20220;-65
2023/09/12 00:11:03;;;;;;;13.27;6.50;;;;;;;21.24;77.07;151360.50;4978488;28;20600;-65
2023/09/12 00:13:30;;;;;;;13.23;6.83;;;;;;;21.12;78.29;151330.47;4976814;28;20222;-65
2023/09/12 00:15:58;;;;;;;13.33;7.40;;;;;;;20.93;79.67;151285.34;4973171;28;20855;-65
2023/09/12 00:18:25;;;;;;;13.90;6.60;;;;;;;20.86;79.03;151267.78;4974679;28;20749;-65
2023/09/12 00:20:51;;;;;;;12.80;6.90;;;;;;;20.88;80.03;151272.78;4971311;28;20215;-66
2023/09/12 00:23:19;;;;;;;13.67;7.43;;;;;;;20.84;81.67;151264.00;4975258;28;20228;-65
2023/09/12 00:25:46;;;;;;;13.17;8.20;;;;;;;20.75;82.89;151242.69;4972757;28;20226;-65
2023/09/12 00:28:12;;;;;;;15.30;7.57;;;;;;;20.69;84.82;151227.63;4972582;28;20236;-66
2023/09/12 00:30:39;;;;;;;13.03;8.80;;;;;;;20.58;86.97;151201.34;4975080;28;20226;-66
2023/09/12 00:33:07;;;;;;;12.63;8.60;;;;;;;20.44;88.61;151166.25;4960147;28;20223;-66
2023/09/12 00:35:33;;;;;;;14.73;9.33;;;;;;;20.32;89.71;151137.41;4976819;28;20218;-65
2023/09/12 00:38:00;;;;;;;13.73;9.00;;;;;;;20.23;90.44;151114.84;4974828;28;20231;-66
2023/09/12 00:40:27;;;;;;;14.87;8.50;;;;;;;20.14;92.09;151094.81;4974663;28;20238;-65
2023/09/12 00:42:53;;;;;;;15.63;9.97;;;;;;;20.03;92.06;151067.28;4979203;28;20254;-65
2023/09/12 00:45:20;;;;;;;17.30;9.67;;;;;;;19.94;93.25;151045.97;4979133;28;20245;-66
2023/09/12 00:47:47;;;;;;;13.80;9.10;;;;;;;19.91;94.17;151039.75;4993572;28;20223;-65
2023/09/12 00:50:17;;;;;;;15.80;9.37;;;;;;;19.86;93.15;151027.16;4981273;28;20242;-66
2023/09/12 00:52:44;;;;;;;12.57;8.87;;;;;;;19.74;92.94;150997.09;4978595;28;20648;-66
2023/09/12 00:55:12;;;;;;;14.03;8.73;;;;;;;19.61;93.95;150967.03;4983691;28;20272;-66
2023/09/12 00:57:39;;;;;;;16.50;8.60;;;;;;;19.54;94.42;150949.50;4999139;28;20235;-66
2023/09/12 01:00:11;;;;;;;12.77;7.90;;;;;;;19.46;94.07;150929.47;4983765;28;20216;-66
2023/09/12 01:02:38;;;;;;;17.43;8.30;;;;;;;19.38;94.93;150910.72;4987187;28;20697;-66
2023/09/12 01:05:07;;;;;;;12.73;8.30;;;;;;;19.43;94.91;150921.94;4986179;28;20226;-66
2023/09/12 01:07:36;;;;;;;14.97;7.90;;;;;;;19.31;93.52;150893.16;4994225;28;20241;-67
2023/09/12 01:10:03;;;;;;;15.13;7.47;;;;;;;19.27;93.16;150884.38;4980696;28;20244;-66
2023/09/12 01:12:30;;;;;;;12.03;7.33;;;;;;;19.25;93.65;150879.38;4995324;28;20238;-66
2023/09/12 01:14:57;;;;;;;12.50;7.80;;;;;;;19.24;94.21;150875.63;4986770;28;20224;-66
2023/09/12 01:17:25;;;;;;;14.77;7.87;;;;;;;19.22;94.66;150870.63;4989257;28;20231;-66
2023/09/12 01:19:52;;;;;;;18.80;7.33;;;;;;;19.14;94.06;150851.81;4990479;28;20248;-66
2023/09/12 01:22:43;;;;;;;10.47;7.20;;;;;;;19.15;92.73;150855.59;4989089;28;20584;-66
2023/09/12 01:25:31;;;;;;;11.33;7.50;;;;;;;19.30;93.96;150891.91;4973217;28;20240;-66
2023/09/12 01:28:03;;;;;;;11.70;7.10;;;;;;;19.33;93.16;150898.19;4973584;28;20285;-66
2023/09/12 01:30:32;;;;;;;11.67;7.37;;;;;;;19.27;92.81;150884.38;4988741;28;20255;-66
2023/09/12 01:33:00;;;;;;;17.33;7.00;;;;;;;19.30;92.33;150891.91;4985033;28;20314;-66
2023/09/12 01:35:27;;;;;;;16.53;8.47;;;;;;;19.31;93.02;150894.41;4988707;28;20621;-66
2023/09/12 01:37:54;;;;;;;13.47;7.33;;;;;;;19.33;92.48;150899.41;4984510;28;20565;-65
2023/09/12 01:40:34;;;;;;;14.63;6.83;;;;;;;19.40;91.66;150914.44;4992024;28;20259;-65
2023/09/12 01:43:05;;;;;;;11.97;6.97;;;;;;;19.49;90.70;150936.97;4987797;28;20233;-65
2023/09/12 01:45:32;;;;;;;12.93;7.50;;;;;;;19.72;87.31;150993.31;4991868;28;20223;-65
2023/09/12 01:48:00;;;;;;;14.30;6.80;;;;;;;19.86;87.34;151025.88;4985821;28;20263;-66
2023/09/12 01:50:29;;;;;;;17.60;7.40;;;;;;;19.84;87.30;151022.16;4983323;28;20236;-65
2023/09/12 01:52:56;;;;;;;15.67;7.17;;;;;;;19.74;88.26;150998.31;4984702;28;20246;-65
2023/09/12 01:55:23;;;;;;;11.87;7.33;;;;;;;19.68;87.85;150982.06;4979076;28;20238;-65
2023/09/12 01:57:50;;;;;;;12.20;7.17;;;;;;;19.59;88.18;150960.81;4996297;28;20234;-66
2023/09/12 02:00:20;;;;;;;13.00;7.03;;;;;;;19.69;87.54;150985.81;4982843;28;20234;-65
2023/09/12 02:02:47;;;;;;;13.87;7.33;;;;;;;19.67;88.03;150980.78;4987935;28;20235;-66
2023/09/12 02:05:18;;;;;;;12.33;6.47;;;;;;;19.56;88.61;150953.28;4989276;28;20232;-65
2023/09/12 02:07:45;;;;;;;10.53;7.30;;;;;;;19.48;90.80;150934.47;4986297;28;20217;-65
2023/09/12 02:10:13;;;;;;;11.47;7.80;;;;;;;19.42;91.02;150919.44;4975690;28;20246;-65
2023/09/12 02:12:40;;;;;;;17.67;7.27;;;;;;;19.32;90.91;150895.69;4988285;28;20234;-65
2023/09/12 02:15:08;;;;;;;14.67;7.80;;;;;;;19.27;92.09;150884.38;4987324;28;20230;-65
2023/09/12 02:17:38;;;;;;;14.03;7.60;;;;;;;19.23;91.73;150873.13;4982319;28;20893;-65
2023/09/12 02:20:07;;;;;;;11.33;6.53;;;;;;;19.15;91.51;150855.59;4972592;28;20232;-65
2023/09/12 02:22:33;;;;;;;14.70;7.77;;;;;;;19.10;91.88;150841.81;4983426;28;20227;-65
2023/09/12 02:25:00;;;;;;;13.63;6.77;;;;;;;19.09;92.01;150839.31;4973725;28;20238;-65
2023/09/12 02:27:26;;;;;;;15.43;7.90;;;;;;;19.14;92.60;150853.09;4991178;28;20306;-65
2023/09/12 02:29:55;;;;;;;12.13;6.73;;;;;;;19.07;92.35;150834.34;4989907;28;20309;-65
2023/09/12 02:32:21;;;;;;;11.50;7.17;;;;;;;19.04;92.25;150828.06;4982887;28;20319;-65
2023/09/12 02:34:49;;;;;;;16.40;8.10;;;;;;;19.01;93.75;150821.81;4988712;28;20221;-65
2023/09/12 02:37:16;;;;;;;11.70;6.80;;;;;;;18.94;94.90;150804.25;4978602;28;20309;-65
2023/09/12 02:39:43;;;;;;;14.20;8.37;;;;;;;18.96;95.01;150807.97;4987335;28;20252;-65
2023/09/12 02:42:09;;;;;;;19.23;7.63;;;;;;;18.87;95.27;150787.94;4989089;28;20231;-65
2023/09/12 02:44:36;;;;;;;12.53;8.13;;;;;;;18.85;94.57;150781.72;4984456;28;20225;-65
2023/09/12 02:47:03;;;;;;;16.93;8.03;;;;;;;18.82;94.81;150774.19;4987289;28;20308;-65
2023/09/12 02:49:31;;;;;;;12.40;7.77;;;;;;;18.78;95.04;150765.41;4984042;28;20234;-65
2023/09/12 02:51:59;;;;;;;12.93;7.30;;;;;;;18.91;94.26;150795.47;4981419;28;20229;-66
2023/09/12 02:54:25;;;;;;;12.13;7.70;;;;;;;18.89;94.79;150791.72;4983067;28;20225;-65
2023/09/12 02:56:52;;;;;;;16.00;7.70;;;;;;;18.86;95.65;150785.44;4988159;28;20227;-65
2023/09/12 02:59:23;;;;;;;15.70;8.17;;;;;;;18.82;95.94;150774.19;4985365;28;20254;-65
2023/09/12 03:01:50;;;;;;;14.07;7.80;;;;;;;18.81;94.76;150772.94;4987422;28;20228;-65
2023/09/12 03:04:16;;;;;;;15.53;7.40;;;;;;;18.78;94.88;150765.41;4983800;28;20236;-65
2023/09/12 03:06:43;;;;;;;13.43;8.10;;;;;;;18.78;93.46;150765.41;4988720;28;20255;-65
2023/09/12 03:09:12;;;;;;;14.27;7.50;;;;;;;18.79;94.17;150766.69;4971601;28;20228;-65
2023/09/12 03:11:38;;;;;;;13.67;7.60;;;;;;;18.74;94.00;150756.66;4971603;28;20232;-65
2023/09/12 03:14:06;;;;;;;11.67;7.40;;;;;;;18.78;93.29;150765.41;4984519;28;20304;-65
2023/09/12 03:16:32;;;;;;;9.63;7.17;;;;;;;18.79;93.94;150767.91;4984598;28;20234;-65
2023/09/12 03:19:01;;;;;;;13.10;7.90;;;;;;;18.80;94.46;150770.41;4982583;28;20231;-65
2023/09/12 03:21:27;;;;;;;14.53;7.50;;;;;;;18.77;94.45;150761.69;4977238;28;20239;-65
2023/09/12 03:23:54;;;;;;;13.03;7.47;;;;;;;18.72;95.15;150751.66;4987519;28;20277;-65
2023/09/12 03:26:24;;;;;;;12.23;8.10;;;;;;;18.71;96.45;150749.16;4991700;28;20302;-65
2023/09/12 03:28:51;;;;;;;11.63;7.70;;;;;;;18.78;95.61;150765.41;4994123;28;20304;-65
2023/09/12 03:31:19;;;;;;;15.13;7.67;;;;;;;18.85;95.91;150781.72;5223604;22;21864;-55
2023/09/12 03:33:49;;;;;;;17.37;7.40;;;;;;;18.82;95.37;150774.19;4964852;28;20770;-55
2023/09/12 03:36:17;;;;;;;19.63;8.00;;;;;;;18.89;94.99;150792.97;4966432;28;20245;-53
2023/09/12 03:38:44;;;;;;;12.37;8.00;;;;;;;18.90;95.43;150794.22;4985282;28;20230;-53
2023/09/12 03:41:11;;;;;;;13.73;8.23;;;;;;;18.92;96.78;150797.97;4973829;28;20235;-55
2023/09/12 03:43:39;;;;;;;14.57;8.13;;;;;;;18.93;95.88;150800.47;4990576;28;20236;-54
2023/09/12 03:46:06;;;;;;;14.10;8.17;;;;;;;18.96;95.51;150809.31;4984954;28;20581;-53
2023/09/12 03:48:36;;;;;;;12.73;8.03;;;;;;;19.08;95.70;150836.84;4970936;28;20216;-54
2023/09/12 03:51:03;;;;;;;13.73;7.97;;;;;;;19.14;94.95;150853.09;4979982;28;20229;-54
2023/09/12 03:53:30;;;;;;;13.47;6.77;;;;;;;19.06;95.24;150831.84;5001576;28;20304;-55
2023/09/12 03:55:58;;;;;;;15.40;7.90;;;;;;;19.01;95.31;150821.81;4972096;28;20222;-55
2023/09/12 03:58:25;;;;;;;14.20;8.30;;;;;;;19.01;96.22;150820.53;4975054;28;20310;-55
2023/09/12 04:00:53;;;;;;;10.20;7.50;;;;;;;18.96;97.03;150807.97;4989203;28;20213;-55
2023/09/12 04:03:20;;;;;;;11.03;7.70;;;;;;;18.95;97.09;150806.75;4970252;28;20236;-54
2023/09/12 04:05:47;;;;;;;11.17;7.73;;;;;;;18.93;97.68;150801.75;4992831;28;20313;-54
2023/09/12 04:08:14;;;;;;;12.43;8.27;;;;;;;18.99;97.35;150815.53;4984302;28;20235;-55
2023/09/12 04:10:40;;;;;;;11.33;7.47;;;;;;;18.99;97.51;150816.81;4984862;28;20221;-55
2023/09/12 04:13:07;;;;;;;10.93;8.33;;;;;;;18.98;98.30;150813.03;5002091;28;20235;-55
2023/09/12 04:15:34;;;;;;;10.93;7.80;;;;;;;18.95;98.26;150805.47;4976706;28;20229;-55
2023/09/12 04:18:02;;;;;;;15.40;8.73;;;;;;;18.86;99.44;150785.44;4989733;28;20242;-56
2023/09/12 04:20:29;;;;;;;12.60;7.80;;;;;;;18.86;99.76;150785.44;4975378;28;20227;-55
2023/09/12 04:22:55;;;;;;;14.63;8.23;;;;;;;18.77;100.00;150762.91;4983527;28;20230;-55
2023/09/12 04:25:22;;;;;;;15.80;8.73;;;;;;;18.71;100.00;150749.16;4990964;28;20223;-56
2023/09/12 04:27:48;;;;;;;13.77;7.80;;;;;;;18.66;100.00;150735.38;4993245;28;20228;-54
2023/09/12 04:30:14;;;;;;;12.07;8.30;;;;;;;18.63;100.00;150729.13;4987186;28;20289;-56
2023/09/12 04:32:41;;;;;;;16.13;9.23;;;;;;;18.49;100.00;150695.38;4983798;28;20326;-55
2023/09/12 04:35:09;;;;;;;9.80;8.13;;;;;;;18.52;100.00;150701.59;4991144;28;20226;-55
2023/09/12 04:37:37;;;;;;;14.67;8.87;;;;;;;18.41;100.00;150675.34;4991888;28;20323;-53
2023/09/12 04:40:06;;;;;;;14.50;8.63;;;;;;;18.31;100.00;150650.31;4986832;28;20249;-53
2023/09/12 04:42:33;;;;;;;15.63;9.17;;;;;;;18.21;100.00;150626.50;4993396;28;20584;-54
2023/09/12 04:45:00;;;;;;;13.00;8.47;;;;;;;18.15;100.00;150612.75;4990037;28;20232;-55
2023/09/12 04:47:27;;;;;;;11.90;8.67;;;;;;;18.06;100.00;150590.22;4991518;28;20239;-55
2023/09/12 04:49:54;;;;;;;10.57;8.57;;;;;;;17.94;100.00;150562.66;4988742;28;20264;-55
2023/09/12 04:52:22;;;;;;;14.40;8.77;;;;;;;17.91;100.00;150555.16;4987965;28;20250;-55
2023/09/12 04:54:49;;;;;;;15.93;8.67;;;;;;;17.87;100.00;150543.91;4975347;28;20223;-54
2023/09/12 04:57:15;;;;;;;13.43;8.20;;;;;;;17.85;100.00;150540.13;4990829;28;20712;-55
2023/09/12 04:59:42;;;;;;;12.73;8.87;;;;;;;17.86;100.00;150542.63;4993769;28;20242;-54
2023/09/12 05:02:09;;;;;;;12.57;8.73;;;;;;;17.79;100.00;150526.41;4989746;28;20250;-55
2023/09/12 05:04:35;;;;;;;13.57;8.70;;;;;;;17.76;100.00;150517.63;4993675;28;20234;-54
2023/09/12 05:07:02;;;;;;;14.47;8.80;;;;;;;17.75;100.00;150516.38;4983642;28;20224;-56
2023/09/12 05:09:30;;;;;;;13.30;8.97;;;;;;;17.82;100.00;150532.63;4982763;28;20228;-57
2023/09/12 05:11:57;;;;;;;13.40;8.93;;;;;;;17.79;100.00;150525.13;4988657;28;20609;-56
2023/09/12 05:14:24;;;;;;;10.37;8.33;;;;;;;17.75;100.00;150515.13;4975112;28;20614;-56
2023/09/12 05:16:51;;;;;;;13.20;9.30;;;;;;;17.71;100.00;150506.38;4988935;28;20229;-56
2023/09/12 05:19:20;;;;;;;13.50;8.67;;;;;;;17.71;100.00;150506.38;4985367;28;20829;-56
2023/09/12 05:21:47;;;;;;;16.43;8.97;;;;;;;17.75;100.00;150516.38;4993444;28;20218;-56
2023/09/12 05:24:14;;;;;;;15.60;9.30;;;;;;;17.82;100.00;150533.91;4991350;28;20230;-56
2023/09/12 05:26:42;;;;;;;15.17;8.60;;;;;;;17.84;100.00;150537.63;4991754;28;20230;-56
2023/09/12 05:29:08;;;;;;;16.00;8.60;;;;;;;17.82;100.00;150532.63;4989748;28;20233;-55
2023/09/12 05:31:35;;;;;;;15.40;9.00;;;;;;;17.83;100.00;150535.13;4989778;28;20305;-56
2023/09/12 05:34:02;;;;;;;29.97;10.60;;;;;;;17.86;100.00;150542.63;4987882;28;20595;-55
2023/09/12 05:36:29;;;;;;;27.57;10.47;;;;;;;17.85;100.00;150540.13;4993260;28;20226;-55
2023/09/12 05:38:55;;;;;;;19.83;9.37;;;;;;;17.84;100.00;150538.91;4991607;28;20225;-56
2023/09/12 05:41:22;;;;;;;19.97;10.57;;;;;;;17.91;100.00;150555.16;4991696;28;20233;-55
2023/09/12 05:43:50;;;;;;;16.83;9.20;;;;;;;18.00;100.00;150577.72;4981243;28;20225;-56
2023/09/12 05:46:17;;;;;;;12.33;8.93;;;;;;;18.01;100.00;150579.00;4990009;28;20308;-56
2023/09/12 05:48:43;;;;;;;23.27;10.23;;;;;;;18.07;100.00;150593.97;4994065;28;20228;-54
2023/09/12 05:51:11;;;;;;;20.67;10.37;;;;;;;18.19;100.00;150621.50;4982514;28;20241;-56
2023/09/12 05:53:38;;;;;;;18.33;9.00;;;;;;;18.26;100.00;150639.00;4987314;28;20234;-55
2023/09/12 05:56:04;;;;;;;19.73;9.60;;;;;;;18.32;100.00;150654.03;4982599;28;20228;-55
2023/09/12 05:58:31;;;;;;;16.43;11.30;;;;;;;18.39;100.00;150671.56;4988463;28;20236;-55
2023/09/12 06:00:59;;;;;;;18.80;9.03;;;;;;;18.50;100.00;150696.59;4975278;28;20423;-56
2023/09/12 06:03:26;;;;;;;17.00;9.87;;;;;;;18.58;100.00;150716.63;4984262;28;20262;-56
2023/09/12 06:05:52;;;;;;;14.03;9.57;;;;;;;18.71;100.00;150747.88;4985677;28;20245;-56
2023/09/12 06:08:19;;;;;;;23.50;9.63;;;;;;;18.80;100.00;150769.19;4989750;28;20237;-55
2023/09/12 06:10:46;;;;;;;27.23;10.53;;;;;;;18.86;100.00;150785.44;4991688;28;20226;-54
2023/09/12 06:13:12;;;;;;;21.13;10.87;;;;;;;18.89;100.00;150792.97;4981717;28;20250;-55
2023/09/12 06:15:41;;;;;;;28.63;12.47;;;;;;;18.98;100.00;150813.03;4985559;28;20235;-56
2023/09/12 06:18:08;;;;;;;19.50;10.43;;;;;;;19.12;100.00;150848.09;4970899;28;20227;-54
2023/09/12 06:20:35;;;;;;;28.27;10.77;;;;;;;19.10;100.00;150843.09;4990054;28;20586;-56
2023/09/12 06:23:03;;;;;;;19.10;9.53;;;;;;;19.14;100.00;150851.81;4979509;28;20243;-55
2023/09/12 06:25:30;;;;;;;12.57;9.33;;;;;;;19.26;96.91;150881.88;4988124;28;20749;-56
2023/09/12 06:27:56;;;;;;;11.77;8.47;;;;;;;19.31;96.60;150893.16;4987622;28;20219;-54
2023/09/12 06:30:23;;;;;;;15.23;8.43;;;;;;;19.36;97.56;150904.41;4990650;28;20240;-54
2023/09/12 06:32:49;;;;;;;13.20;7.93;;;;;;;19.37;99.06;150906.94;4988189;28;20237;-53
2023/09/12 06:35:18;;;;;;;13.33;9.43;;;;;;;19.42;99.13;150919.44;4982023;28;20243;-54
2023/09/12 06:37:46;;;;;;;13.40;8.60;;;;;;;19.41;100.00;150918.22;4989292;28;20223;-54
2023/09/12 06:40:13;;;;;;;14.67;8.93;;;;;;;19.49;99.92;150936.97;4981654;28;20237;-54
2023/09/12 06:42:42;;;;;;;13.60;8.97;;;;;;;19.57;100.00;150957.03;4983467;28;20749;-54
2023/09/12 06:45:10;;;;;;;18.07;9.23;;;;;;;19.62;100.00;150969.53;4981533;28;20232;-56
2023/09/12 06:47:36;;;;;;;18.00;8.50;;;;;;;19.66;100.00;150978.28;4986269;28;20595;-56
2023/09/12 06:50:03;;;;;;;11.33;8.17;;;;;;;19.73;100.00;150994.59;4984927;28;20224;-56
2023/09/12 06:52:31;;;;;;;15.97;7.63;;;;;;;19.79;100.00;151009.63;4985765;28;20317;-56
2023/09/12 06:54:58;;;;;;;25.53;8.20;;;;;;;19.82;99.79;151017.13;4989497;28;20227;-57
2023/09/12 06:57:25;;;;;;;12.17;8.17;;;;;;;19.96;99.45;151049.75;4990096;28;20233;-57
2023/09/12 06:59:51;;;;;;;13.07;8.43;;;;;;;20.00;99.85;151061.00;4990644;28;20220;-57
2023/09/12 07:02:18;;;;;;;11.20;7.60;;;;;;;20.12;99.18;151089.84;4979218;28;20606;-56
2023/09/12 07:04:44;;;;;;;11.37;8.17;;;;;;;20.24;99.22;151117.38;4990373;28;20324;-55
2023/09/12 07:07:11;;;;;;;14.03;8.53;;;;;;;20.34;96.47;151143.69;4982974;28;20237;-56
2023/09/12 07:09:39;;;;;;;11.63;8.47;;;;;;;20.49;96.24;151180.00;4987536;28;20226;-54
2023/09/12 07:12:06;;;;;;;13.67;7.83;;;;;;;20.53;93.90;151188.81;4985211;28;20221;-55
2023/09/12 07:14:33;;;;;;;10.97;7.97;;;;;;;20.70;95.07;151230.13;4989114;28;20236;-56
2023/09/12 07:17:00;;;;;;;10.03;7.27;;;;;;;20.83;92.37;151260.25;4983842;28;20235;-56
2023/09/12 07:19:26;;;;;;;12.00;7.47;;;;;;;20.95;91.92;151290.34;4990196;28;20237;-55
2023/09/12 07:21:53;;;;;;;10.10;7.23;;;;;;;21.07;91.92;151319.16;4982258;28;20581;-56
2023/09/12 07:24:25;;;;;;;11.93;7.17;;;;;;;21.23;92.50;151358.00;4983381;28;20293;-56
2023/09/12 07:26:53;;;;;;;14.73;8.07;;;;;;;21.32;91.56;151380.56;4987234;28;20221;-56
2023/09/12 07:29:23;;;;;;;10.63;7.80;;;;;;;21.44;90.26;151409.41;4974688;28;20234;-56
2023/09/12 07:31:53;;;;;;;12.43;7.53;;;;;;;21.55;90.50;151435.72;4983051;28;20229;-56
2023/09/12 07:34:25;;;;;;;11.07;8.17;;;;;;;21.60;88.42;151448.25;4984436;28;20234;-56
2023/09/12 07:36:52;;;;;;;14.80;7.83;;;;;;;21.67;88.99;151464.63;4989781;28;20220;-55
2023/09/12 07:39:23;;;;;;;16.27;8.90;;;;;;;21.66;90.36;151462.13;4986206;28;20255;-56
2023/09/12 07:41:50;;;;;;;13.70;9.10;;;;;;;21.68;91.05;151468.38;4980748;28;20232;-56
2023/09/12 07:44:18;;;;;;;16.37;8.97;;;;;;;21.76;92.51;151485.91;4984234;28;20681;-54
2023/09/12 07:46:45;;;;;;;12.27;8.17;;;;;;;21.78;92.38;151492.16;4988814;28;20228;-57
2023/09/12 07:49:11;;;;;;;11.53;9.00;;;;;;;21.74;92.89;151482.13;4987358;28;20234;-55
2023/09/12 07:51:38;;;;;;;14.33;9.40;;;;;;;21.74;92.92;151482.13;5002553;28;20579;-55
2023/09/12 07:54:05;;;;;;;13.53;9.10;;;;;;;21.72;93.59;151475.88;4984341;28;20232;-55
2023/09/12 07:56:32;;;;;;;20.23;10.73;;;;;;;21.70;92.81;151472.16;4989527;28;20224;-54
2023/09/12 07:58:59;;;;;;;15.73;10.97;;;;;;;21.68;92.61;151468.38;4980249;28;20227;-54
2023/09/12 08:01:27;;;;;;;12.07;10.13;;;;;;;21.62;93.49;151452.03;4985734;28;20233;-55
2023/09/12 08:03:54;;;;;;;17.80;11.43;;;;;;;21.59;94.04;151445.75;4981048;28;20283;-55
2023/09/12 08:06:21;;;;;;;14.73;10.53;;;;;;;21.52;94.43;151428.19;4986141;28;20325;-55
2023/09/12 08:08:48;;;;;;;15.37;10.50;;;;;;;21.51;94.29;151425.69;4985952;28;20264;-54
2023/09/12 08:11:14;;;;;;;18.53;10.23;;;;;;;21.50;95.44;151424.47;4980426;28;20674;-55
2023/09/12 08:13:41;;;;;;;14.87;11.40;;;;;;;21.50;95.91;151423.19;4983491;28;20232;-54
2023/09/12 08:16:08;;;;;;;36.50;13.57;;;;;;;21.63;95.91;151455.81;4974436;28;20226;-55
2023/09/12 08:18:35;;;;;;;103.63;21.70;;;;;;;21.63;95.59;151455.81;4981166;28;20228;-55
2023/09/12 08:21:02;;;;;;;24.73;12.10;;;;;;;21.75;95.36;151483.41;4968664;28;20704;-55
2023/09/12 08:23:29;;;;;;;27.27;12.40;;;;;;;21.80;94.50;151497.19;4985095;28;20234;-54
2023/09/12 08:25:55;;;;;;;22.60;12.20;;;;;;;21.91;96.11;151523.53;4971760;28;20219;-52
2023/09/12 08:28:22;;;;;;;17.20;10.87;;;;;;;22.22;95.79;151598.78;4985679;28;20244;-54
2023/09/12 08:30:49;;;;;;;19.37;11.60;;;;;;;22.61;91.41;151692.91;4985297;28;20217;-53
2023/09/12 08:33:15;;;;;;;20.13;11.87;;;;;;;23.04;87.58;151795.72;4981854;28;20247;-55
2023/09/12 08:35:43;;;;;;;21.70;11.93;;;;;;;23.18;85.79;151829.63;4988653;28;20603;-54
2023/09/12 08:38:10;;;;;;;18.83;11.13;;;;;;;23.41;84.49;151887.38;4976804;28;20314;-55
2023/09/12 08:40:37;;;;;;;19.23;11.73;;;;;;;23.58;83.45;151927.53;4983960;28;20244;-57
2023/09/12 08:43:04;;;;;;;16.10;10.60;;;;;;;23.81;83.71;151984.03;4978895;28;20227;-54
2023/09/12 08:45:31;;;;;;;14.37;10.20;;;;;;;24.14;83.51;152064.38;4985114;28;20240;-56
2023/09/12 08:48:01;;;;;;;18.60;10.47;;;;;;;24.34;82.79;152112.09;4981658;28;20232;-56
2023/09/12 08:50:30;;;;;;;15.47;10.93;;;;;;;24.42;84.88;152130.91;4988430;28;20224;-56
2023/09/12 08:52:58;;;;;;;14.63;9.30;;;;;;;24.62;80.52;152179.91;4978640;28;20222;-55
2023/09/12 08:55:25;;;;;;;16.37;10.30;;;;;;;24.64;78.62;152183.66;4991173;28;20238;-56
2023/09/12 08:57:52;;;;;;;15.77;9.67;;;;;;;24.72;79.11;152205.06;4972142;28;20221;-55
2023/09/12 09:00:20;;;;;;;13.87;9.03;;;;;;;24.72;78.44;152203.75;4980218;28;21247;-56
2023/09/12 09:02:47;;;;;;;12.50;9.20;;;;;;;24.76;80.04;152213.84;4992084;28;20220;-56
2023/09/12 09:05:15;;;;;;;12.23;8.77;;;;;;;24.81;79.31;152226.41;4987537;28;20264;-54
2023/09/12 09:07:43;;;;;;;13.20;8.90;;;;;;;24.90;78.67;152249.00;4990803;28;20231;-55
2023/09/12 09:10:16;;;;;;;11.43;8.47;;;;;;;25.00;76.41;152272.84;4981429;28;20225;-55
2023/09/12 09:12:44;;;;;;;10.30;8.67;;;;;;;25.03;77.53;152280.38;4989169;28;20242;-55
2023/09/12 09:15:25;;;;;;;13.17;8.60;;;;;;;25.18;77.60;152315.56;4989321;28;20244;-55
2023/09/12 09:17:53;;;;;;;15.27;10.20;;;;;;;25.32;71.57;152350.72;4991796;28;20228;-55
2023/09/12 09:20:23;;;;;;;14.17;9.90;;;;;;;25.37;69.94;152360.78;4980634;28;20225;-54
2023/09/12 09:22:57;;;;;;;21.10;9.23;;;;;;;25.49;70.88;152391.00;4992712;28;20313;-53
2023/09/12 09:25:25;;;;;;;15.40;9.60;;;;;;;25.39;71.92;152367.09;4990278;28;20223;-55
2023/09/12 09:27:52;;;;;;;17.27;10.63;;;;;;;25.31;72.83;152347.00;4992578;28;20227;-54
2023/09/12 09:30:20;;;;;;;16.67;10.17;;;;;;;25.40;72.50;152369.59;4987710;28;20227;-55
2023/09/12 09:32:47;;;;;;;14.37;10.57;;;;;;;25.48;70.50;152388.47;4989426;28;20240;-55
2023/09/12 09:35:14;;;;;;;14.40;10.40;;;;;;;25.39;70.75;152365.81;4986208;28;20235;-55
2023/09/12 09:37:42;;;;;;;19.87;10.47;;;;;;;25.43;70.24;152377.16;4994926;28;20224;-55
2023/09/12 09:40:10;;;;;;;15.93;9.30;;;;;;;25.56;71.03;152408.56;4987898;28;20232;-55
2023/09/12 09:42:38;;;;;;;14.67;9.60;;;;;;;25.72;71.88;152446.28;4985225;28;20233;-55
2023/09/12 09:45:06;;;;;;;15.27;9.80;;;;;;;25.82;69.28;152471.41;4991614;28;20240;-55
2023/09/12 09:47:33;;;;;;;14.67;10.23;;;;;;;25.78;70.20;152462.59;4988429;28;20239;-53
2023/09/12 09:50:00;;;;;;;18.37;10.17;;;;;;;25.93;69.62;152499.06;4991023;28;20239;-55
2023/09/12 09:52:27;;;;;;;14.60;9.80;;;;;;;26.01;70.31;152517.88;4989288;28;20289;-55
2023/09/12 09:54:54;;;;;;;14.67;10.10;;;;;;;25.96;69.88;152504.06;4988504;28;20226;-56
2023/09/12 09:57:20;;;;;;;14.37;10.17;;;;;;;26.11;67.73;152540.50;4989876;28;20220;-56
2023/09/12 09:59:51;;;;;;;12.37;9.73;;;;;;;26.11;68.44;152541.72;4986169;28;20223;-56
2023/09/12 10:02:23;;;;;;;12.40;9.47;;;;;;;26.18;67.30;152558.13;4984417;28;20243;-55
2023/09/12 10:04:53;;;;;;;14.77;10.00;;;;;;;26.16;66.13;152554.34;4988816;28;20253;-56
2023/09/12 10:07:21;;;;;;;12.27;9.57;;;;;;;26.21;66.03;152566.91;4987220;28;20271;-56
2023/09/12 10:09:48;;;;;;;16.53;9.53;;;;;;;26.35;64.33;152600.88;4988057;28;20306;-56
2023/09/12 10:12:15;;;;;;;13.83;10.20;;;;;;;26.44;64.80;152620.97;4987437;28;20235;-56
2023/09/12 10:14:42;;;;;;;14.70;9.57;;;;;;;26.51;65.49;152638.53;4993374;28;20230;-55
2023/09/12 10:17:16;;;;;;;14.37;10.47;;;;;;;26.36;65.46;152602.09;4979218;28;20239;-56
2023/09/12 10:19:47;;;;;;;16.00;9.60;;;;;;;26.59;64.60;152657.41;4985998;28;20242;-56
2023/09/12 10:22:21;;;;;;;13.13;9.57;;;;;;;26.64;62.90;152671.22;4984818;28;20239;-55
2023/09/12 10:24:50;;;;;;;14.03;10.13;;;;;;;26.86;61.57;152722.84;4988096;28;20239;-55
2023/09/12 10:27:19;;;;;;;17.13;10.10;;;;;;;26.91;60.76;152736.63;4991230;28;20227;-55
2023/09/12 10:29:48;;;;;;;13.30;9.53;;;;;;;27.03;61.33;152764.31;4986146;28;20234;-55
2023/09/12 10:32:19;;;;;;;14.53;9.37;;;;;;;27.10;60.31;152783.13;4980667;28;20686;-55
2023/09/12 10:34:47;;;;;;;13.37;10.03;;;;;;;27.06;61.53;152773.06;4991824;28;20233;-55
2023/09/12 10:37:16;;;;;;;18.53;9.30;;;;;;;27.16;61.19;152795.72;4982428;28;20234;-56
2023/09/12 10:39:44;;;;;;;11.87;10.03;;;;;;;27.30;58.38;152830.91;4981442;28;20242;-56
2023/09/12 10:42:12;;;;;;;15.43;9.70;;;;;;;27.25;58.13;152819.63;4981661;28;20230;-56
2023/09/12 10:44:39;;;;;;;14.20;9.40;;;;;;;27.38;59.95;152849.81;4990436;28;20219;-55
2023/09/12 10:47:06;;;;;;;13.20;9.20;;;;;;;27.46;59.86;152869.94;4980773;28;20228;-56
2023/09/12 10:49:34;;;;;;;13.70;9.03;;;;;;;27.33;57.08;152838.47;4991236;28;20233;-56
2023/09/12 10:52:01;;;;;;;15.10;9.23;;;;;;;27.27;57.40;152823.38;4983969;28;20241;-56
2023/09/12 10:54:38;;;;;;;14.17;8.97;;;;;;;27.33;56.35;152838.47;4987354;28;20227;-57
2023/09/12 10:57:05;;;;;;;13.40;8.40;;;;;;;27.40;55.64;152854.84;4980859;28;20703;-56
2023/09/12 10:59:35;;;;;;;14.53;8.30;;;;;;;27.26;55.16;152822.13;4989249;28;20253;-56
2023/09/12 11:02:28;;;;;;;10.00;8.33;;;;;;;27.18;52.57;152800.75;4978037;28;20223;-56
2023/09/12 11:04:56;;;;;;;10.13;7.50;;;;;;;27.17;52.42;152799.50;4981042;28;20223;-55
2023/09/12 11:07:34;;;;;;;10.13;7.60;;;;;;;27.26;52.03;152822.13;4988330;28;20222;-56
2023/09/12 11:10:31;;;;;;;13.25;7.25;;;;;;;27.30;51.65;152829.69;4986332;28;20709;-57
2023/09/12 11:12:58;;;;;;;10.00;7.13;;;;;;;27.30;51.75;152829.69;4951440;28;20314;-56
2023/09/12 11:15:26;;;;;;;14.57;8.40;;;;;;;27.18;50.56;152802.03;4988933;28;20254;-57
2023/09/12 11:18:03;;;;;;;8.47;7.50;;;;;;;27.15;49.20;152793.19;4982050;28;20733;-56